Time;durP1;ratioP1;P1;durP2;ratioP2;P2;SDS_P1;SDS_P2;PMS_P1;PMS_P2;Temp;Humidity;BMP_temperature;BMP_pressure;BME280_temperature;BME280_humidity;BME280_pressure;Samples;Min_cycle;Max_cycle;Signal;HPM_P1;HPM_P2
2024/02/12 00:00:47;;;;;;;24.27;17.13;;;9.60;99.90;;;;;;5062963;28;20047;-68
2024/02/12 00:03:24;;;;;;;26.38;17.52;;;9.50;99.90;;;;;;5087040;28;20130;-69
2024/02/12 00:05:51;;;;;;;24.00;16.65;;;9.40;99.90;;;;;;5058277;28;20055;-70
2024/02/12 00:08:19;;;;;;;22.17;16.38;;;9.50;99.90;;;;;;5060941;28;20428;-70
2024/02/12 00:10:48;;;;;;;22.90;16.42;;;9.40;99.90;;;;;;5058943;28;20032;-72
2024/02/12 00:13:17;;;;;;;21.95;15.00;;;9.50;99.90;;;;;;5071328;28;20119;-69
2024/02/12 00:15:45;;;;;;;30.92;16.63;;;9.30;99.90;;;;;;5066430;28;20048;-70
2024/02/12 00:18:12;;;;;;;20.48;15.02;;;9.00;99.90;;;;;;5065409;28;20041;-72
2024/02/12 00:20:39;;;;;;;19.92;15.18;;;9.30;99.90;;;;;;5046779;28;20059;-69
2024/02/12 00:23:07;;;;;;;21.80;15.13;;;9.40;99.90;;;;;;5060515;28;20638;-69
2024/02/12 00:25:34;;;;;;;21.77;15.98;;;9.40;99.90;;;;;;5063118;28;20033;-71
2024/02/12 00:28:02;;;;;;;19.30;15.20;;;9.40;99.90;;;;;;5051474;28;20051;-68
2024/02/12 00:30:32;;;;;;;18.73;14.10;;;9.30;99.90;;;;;;5069982;28;20473;-70
2024/02/12 00:33:04;;;;;;;19.23;15.02;;;9.30;99.90;;;;;;5050834;28;20040;-71
2024/02/12 00:35:32;;;;;;;19.15;14.35;;;9.20;99.90;;;;;;5061803;28;20040;-71
2024/02/12 00:38:03;;;;;;;20.40;14.80;;;9.10;99.90;;;;;;5063623;28;20040;-72
2024/02/12 00:40:30;;;;;;;23.63;15.10;;;9.20;99.90;;;;;;5063709;28;20041;-69
2024/02/12 00:43:15;;;;;;;21.65;15.25;;;9.30;99.90;;;;;;5059453;28;20032;-71
2024/02/12 00:45:43;;;;;;;18.20;13.90;;;9.30;99.90;;;;;;5073122;28;20039;-72
2024/02/12 00:48:10;;;;;;;21.27;14.57;;;9.30;99.90;;;;;;5055808;28;20098;-70
2024/02/12 00:50:37;;;;;;;19.50;13.55;;;9.40;99.90;;;;;;5067852;28;20549;-69
2024/02/12 00:53:05;;;;;;;20.70;14.63;;;9.50;99.90;;;;;;5070012;28;20040;-72
2024/02/12 00:55:32;;;;;;;20.25;14.65;;;9.40;99.90;;;;;;5073083;28;20387;-71
2024/02/12 00:58:05;;;;;;;23.38;14.98;;;9.40;99.90;;;;;;5063912;28;20045;-70
2024/02/12 01:00:32;;;;;;;23.45;15.38;;;9.40;99.90;;;;;;5052643;28;20483;-70
2024/02/12 01:03:14;;;;;;;19.98;14.80;;;9.40;99.90;;;;;;5058279;28;20029;-70
2024/02/12 01:05:43;;;;;;;21.98;13.88;;;9.40;99.90;;;;;;5049431;28;20042;-70
2024/02/12 01:08:11;;;;;;;19.58;15.02;;;9.20;99.90;;;;;;5066436;28;20033;-70
2024/02/12 01:10:39;;;;;;;19.35;14.85;;;9.20;99.90;;;;;;5042875;28;20036;-68
2024/02/12 01:13:06;;;;;;;23.13;15.45;;;9.20;99.90;;;;;;5073910;28;20120;-70
2024/02/12 01:15:34;;;;;;;25.48;17.52;;;9.10;99.90;;;;;;5079399;28;20123;-69
2024/02/12 01:18:17;;;;;;;26.67;16.95;;;9.20;99.90;;;;;;5062942;28;20083;-73
2024/02/12 01:20:45;;;;;;;24.63;16.67;;;9.10;99.90;;;;;;5035289;28;20597;-69
2024/02/12 01:23:15;;;;;;;27.52;17.77;;;9.10;99.90;;;;;;5060316;28;20029;-70
2024/02/12 01:25:44;;;;;;;21.55;16.25;;;8.80;99.90;;;;;;5085522;28;20040;-67
2024/02/12 01:28:11;;;;;;;26.50;16.45;;;8.70;99.90;;;;;;5067279;28;20040;-71
2024/02/12 01:30:39;;;;;;;27.45;17.25;;;8.90;99.90;;;;;;5047114;28;20098;-70
2024/02/12 01:33:06;;;;;;;24.20;16.52;;;9.00;99.90;;;;;;5058504;28;20055;-71
2024/02/12 01:35:36;;;;;;;26.65;16.58;;;9.10;99.90;;;;;;5057745;28;20064;-72
2024/02/12 01:38:08;;;;;;;29.17;18.58;;;9.20;99.90;;;;;;5051750;28;20025;-68
2024/02/12 01:40:36;;;;;;;26.10;18.13;;;9.30;99.90;;;;;;5054444;28;20036;-70
2024/02/12 01:43:04;;;;;;;28.58;18.92;;;9.00;99.90;;;;;;5053078;28;20229;-69
2024/02/12 01:45:33;;;;;;;25.25;16.55;;;8.70;99.90;;;;;;5057115;28;20045;-69
2024/02/12 01:48:02;;;;;;;29.23;18.55;;;8.70;99.90;;;;;;5064182;28;20044;-70
2024/02/12 01:50:31;;;;;;;22.88;16.00;;;8.80;99.90;;;;;;5054710;28;20048;-69
2024/02/12 01:53:01;;;;;;;23.88;15.85;;;8.60;99.90;;;;;;5055105;28;20115;-70
2024/02/12 01:55:29;;;;;;;22.13;15.18;;;8.70;99.90;;;;;;5072083;28;20040;-70
2024/02/12 01:57:57;;;;;;;22.33;15.10;;;8.70;99.90;;;;;;5072007;28;20055;-70
2024/02/12 02:00:27;;;;;;;21.50;15.35;;;8.90;99.90;;;;;;5054690;28;20048;-70
2024/02/12 02:02:56;;;;;;;22.80;15.63;;;9.00;99.90;;;;;;5072426;28;20079;-70
2024/02/12 02:05:25;;;;;;;25.65;15.00;;;9.10;99.90;;;;;;5072466;28;20073;-70
2024/02/12 02:07:56;;;;;;;20.55;15.13;;;9.10;99.90;;;;;;5072528;28;20506;-70
2024/02/12 02:10:24;;;;;;;22.65;15.38;;;9.20;99.90;;;;;;5061997;28;20043;-70
2024/02/12 02:12:53;;;;;;;22.00;14.45;;;9.10;99.90;;;;;;5046932;28;20148;-70
2024/02/12 02:15:42;;;;;;;22.15;15.13;;;9.10;99.90;;;;;;5052878;28;20040;-70
2024/02/12 02:18:09;;;;;;;21.15;15.40;;;9.00;99.90;;;;;;5048058;28;20052;-70
2024/02/12 02:20:57;;;;;;;19.95;14.57;;;8.90;99.90;;;;;;5063924;28;20037;-69
2024/02/12 02:23:25;;;;;;;20.60;15.35;;;8.90;99.90;;;;;;5064610;28;20040;-70
2024/02/12 02:25:56;;;;;;;20.38;14.18;;;9.10;99.90;;;;;;5065415;28;20061;-68
2024/02/12 02:28:25;;;;;;;18.98;15.38;;;9.10;99.90;;;;;;5052966;28;20033;-69
2024/02/12 02:30:53;;;;;;;20.45;15.65;;;9.10;99.90;;;;;;5047838;28;20111;-70
2024/02/12 02:33:20;;;;;;;21.77;15.75;;;9.00;99.90;;;;;;5052414;28;20112;-70
2024/02/12 02:35:48;;;;;;;25.50;16.15;;;9.00;99.90;;;;;;5036138;28;20041;-69
2024/02/12 02:38:15;;;;;;;19.67;15.02;;;9.00;99.90;;;;;;5043304;28;20028;-68
2024/02/12 02:40:43;;;;;;;22.27;15.80;;;9.00;99.90;;;;;;5057120;28;20044;-69
2024/02/12 02:43:15;;;;;;;22.17;15.90;;;9.00;99.90;;;;;;5052600;28;20415;-69
2024/02/12 02:45:43;;;;;;;22.67;15.98;;;9.00;99.90;;;;;;5053490;28;20083;-69
2024/02/12 02:48:19;;;;;;;23.67;15.52;;;9.00;99.90;;;;;;5046867;28;20151;-69
2024/02/12 02:50:48;;;;;;;24.33;14.88;;;8.90;99.90;;;;;;5058908;28;20040;-70
2024/02/12 02:53:15;;;;;;;20.95;15.05;;;8.80;99.90;;;;;;5057793;28;20358;-69
2024/02/12 02:55:43;;;;;;;22.80;15.55;;;8.80;99.90;;;;;;5067170;28;20111;-70
2024/02/12 02:58:11;;;;;;;19.80;15.30;;;8.70;99.90;;;;;;5071589;28;20045;-71
2024/02/12 03:00:39;;;;;;;22.42;15.48;;;8.60;99.90;;;;;;5053626;28;20064;-70
2024/02/12 03:03:08;;;;;;;26.58;15.60;;;8.70;99.90;;;;;;5062721;28;20032;-71
2024/02/12 03:05:38;;;;;;;27.13;16.08;;;8.50;99.90;;;;;;5057577;28;20372;-70
2024/02/12 03:08:08;;;;;;;24.88;15.00;;;8.30;99.90;;;;;;5070980;28;20491;-70
2024/02/12 03:10:37;;;;;;;22.33;15.02;;;8.30;99.90;;;;;;5071173;28;20445;-70
2024/02/12 03:13:04;;;;;;;19.67;13.40;;;8.30;99.90;;;;;;5057078;28;20423;-71
2024/02/12 03:15:35;;;;;;;21.80;14.60;;;8.30;99.90;;;;;;5066287;28;20040;-69
2024/02/12 03:18:04;;;;;;;20.85;14.32;;;8.40;99.90;;;;;;5034692;28;20044;-69
2024/02/12 03:20:32;;;;;;;22.42;14.68;;;8.40;99.90;;;;;;5067826;28;20120;-70
2024/02/12 03:23:00;;;;;;;23.52;15.40;;;8.50;99.90;;;;;;5067493;28;20078;-69
2024/02/12 03:25:27;;;;;;;20.90;14.82;;;8.60;99.90;;;;;;5074056;28;20082;-70
2024/02/12 03:27:55;;;;;;;21.33;15.02;;;8.50;99.90;;;;;;5064933;28;20044;-69
2024/02/12 03:30:24;;;;;;;22.27;14.80;;;8.50;99.90;;;;;;5050384;28;20107;-70
2024/02/12 03:32:52;;;;;;;20.98;14.93;;;8.40;99.90;;;;;;5053076;28;20053;-69
2024/02/12 03:35:19;;;;;;;17.58;13.40;;;8.50;99.90;;;;;;5071077;28;20045;-69
2024/02/12 03:37:54;;;;;;;18.77;13.95;;;8.50;99.90;;;;;;5064657;28;20054;-69
2024/02/12 03:40:26;;;;;;;23.17;14.07;;;8.50;99.90;;;;;;5060724;28;20076;-69
2024/02/12 03:42:54;;;;;;;20.08;14.05;;;8.40;99.90;;;;;;5065980;28;20063;-70
2024/02/12 03:45:22;;;;;;;17.08;11.98;;;8.40;99.90;;;;;;5066453;28;20040;-71
2024/02/12 03:47:49;;;;;;;17.95;11.88;;;8.40;99.90;;;;;;5071307;28;20035;-69
2024/02/12 04:01:28;;;;;;;18.40;11.88;;;8.30;99.90;;;;;;5060418;28;20417;-69
2024/02/12 04:03:55;;;;;;;14.05;11.38;;;8.20;99.90;;;;;;5055335;28;20028;-69
2024/02/12 04:06:24;;;;;;;17.58;12.18;;;8.10;99.90;;;;;;5070837;28;20414;-70
2024/02/12 04:08:52;;;;;;;24.65;13.95;;;8.00;99.90;;;;;;5057236;28;20040;-72
2024/02/12 04:11:19;;;;;;;16.67;13.20;;;8.10;99.90;;;;;;5070365;28;20111;-70
2024/02/12 04:13:46;;;;;;;18.25;12.68;;;8.20;99.90;;;;;;5070143;28;20519;-71
2024/02/12 04:16:16;;;;;;;16.30;12.05;;;8.30;99.90;;;;;;5057317;28;20116;-71
2024/02/12 04:18:43;;;;;;;18.50;13.15;;;8.30;99.90;;;;;;5082843;28;20123;-69
2024/02/12 04:21:10;;;;;;;20.20;12.60;;;8.10;99.90;;;;;;5069017;28;20045;-70
2024/02/12 04:23:38;;;;;;;20.88;12.40;;;8.10;99.90;;;;;;5033001;28;20033;-70
2024/02/12 04:26:10;;;;;;;16.50;12.43;;;8.10;99.90;;;;;;5050286;28;20108;-70
2024/02/12 04:28:40;;;;;;;19.48;12.25;;;8.10;99.90;;;;;;5050778;28;20041;-73
2024/02/12 04:31:07;;;;;;;15.60;12.07;;;8.10;99.90;;;;;;5050691;28;20380;-70
2024/02/12 04:33:34;;;;;;;16.65;12.43;;;8.20;99.90;;;;;;5026909;28;20048;-71
2024/02/12 04:36:02;;;;;;;21.42;11.63;;;8.30;99.90;;;;;;5070003;28;20066;-69
2024/02/12 04:38:33;;;;;;;20.05;11.93;;;8.30;99.90;;;;;;5052756;28;20028;-72
2024/02/12 04:41:01;;;;;;;15.90;11.32;;;8.30;99.90;;;;;;5033844;28;20045;-71
2024/02/12 04:43:29;;;;;;;15.43;11.68;;;8.30;99.90;;;;;;5063330;28;20086;-70
2024/02/12 04:45:56;;;;;;;18.25;12.55;;;8.30;99.90;;;;;;5061288;28;20037;-69
2024/02/12 04:48:24;;;;;;;16.33;12.02;;;8.30;99.90;;;;;;5061434;28;20091;-70
2024/02/12 04:50:52;;;;;;;16.63;11.30;;;8.20;99.90;;;;;;5062815;28;20136;-69
2024/02/12 04:53:19;;;;;;;17.73;12.75;;;8.20;99.90;;;;;;5067695;28;20086;-70
2024/02/12 04:55:48;;;;;;;17.05;12.40;;;8.20;99.90;;;;;;5078846;28;20054;-70
2024/02/12 04:58:15;;;;;;;16.05;12.80;;;8.20;99.90;;;;;;5060555;28;20064;-70
2024/02/12 05:00:42;;;;;;;16.08;12.73;;;8.10;99.90;;;;;;5039044;28;20135;-71
2024/02/12 05:03:09;;;;;;;17.98;13.13;;;8.20;99.90;;;;;;5083471;28;20047;-71
2024/02/12 05:05:38;;;;;;;18.35;12.13;;;8.10;99.90;;;;;;5036651;28;20041;-71
2024/02/12 05:08:05;;;;;;;17.85;12.10;;;7.90;99.90;;;;;;5053227;28;20448;-71
2024/02/12 05:10:33;;;;;;;19.58;13.05;;;7.50;99.90;;;;;;5053526;28;20064;-70
2024/02/12 05:13:06;;;;;;;19.30;12.48;;;7.30;99.90;;;;;;5067209;28;20037;-72
2024/02/12 05:15:34;;;;;;;16.85;12.32;;;7.30;99.90;;;;;;5072246;28;20039;-71
2024/02/12 05:22:32;;;;;;;15.65;12.38;;;7.60;99.90;;;;;;5069487;28;20043;-70
2024/02/12 05:23:40;;;;;;;14.73;11.25;;;7.80;99.90;;;;;;5052108;28;20040;-71
2024/02/12 05:26:09;;;;;;;18.75;10.98;;;7.90;99.90;;;;;;5051533;28;20068;-71
2024/02/12 05:28:36;;;;;;;17.08;11.20;;;7.90;99.90;;;;;;5051516;28;20140;-72
2024/02/12 05:31:04;;;;;;;13.65;10.98;;;7.90;99.90;;;;;;5073088;28;20056;-70
2024/02/12 05:33:31;;;;;;;16.13;10.80;;;8.00;99.90;;;;;;5059897;28;20029;-71
2024/02/12 05:35:59;;;;;;;12.98;10.25;;;8.10;99.90;;;;;;5068861;28;20037;-69
2024/02/12 05:38:26;;;;;;;15.27;9.68;;;8.10;99.90;;;;;;5058583;28;20056;-71
2024/02/12 05:40:53;;;;;;;13.07;10.60;;;8.20;99.90;;;;;;5059174;28;20103;-69
2024/02/12 05:43:21;;;;;;;14.80;9.85;;;8.20;99.90;;;;;;5059201;28;20446;-70
2024/02/12 05:45:48;;;;;;;15.90;10.05;;;8.20;99.90;;;;;;5069136;28;20503;-70
2024/02/12 05:48:16;;;;;;;14.20;10.52;;;8.10;99.90;;;;;;5072815;28;20037;-68
2024/02/12 05:50:45;;;;;;;12.88;10.57;;;7.60;99.90;;;;;;5053084;28;20108;-70
2024/02/12 05:53:12;;;;;;;13.50;10.63;;;7.40;99.90;;;;;;5066242;28;20432;-71
2024/02/12 05:55:39;;;;;;;17.10;10.50;;;7.50;99.90;;;;;;5067691;28;20106;-71
2024/02/12 05:58:09;;;;;;;17.88;10.57;;;7.50;99.90;;;;;;5071992;28;20048;-70
2024/02/12 06:00:37;;;;;;;14.68;11.35;;;7.40;99.90;;;;;;5072355;28;20035;-70
2024/02/12 06:03:04;;;;;;;14.52;10.65;;;7.40;99.90;;;;;;5072197;28;20082;-70
2024/02/12 06:05:31;;;;;;;17.15;11.32;;;7.50;99.90;;;;;;5071447;28;20056;-69
2024/02/12 06:07:59;;;;;;;16.17;10.93;;;7.60;99.90;;;;;;5072271;28;20380;-70
2024/02/12 06:10:27;;;;;;;14.45;9.55;;;7.60;99.90;;;;;;5071955;28;20060;-71
2024/02/12 06:12:54;;;;;;;15.50;10.38;;;7.50;99.90;;;;;;5072048;28;20040;-70
2024/02/12 06:15:21;;;;;;;13.57;9.65;;;7.60;99.90;;;;;;5071106;28;20039;-69
2024/02/12 06:17:52;;;;;;;15.38;10.68;;;7.70;99.90;;;;;;5066959;28;20078;-70
2024/02/12 06:20:21;;;;;;;19.10;10.85;;;7.80;99.90;;;;;;5033873;28;20071;-71
2024/02/12 06:22:49;;;;;;;27.85;15.30;;;8.00;99.90;;;;;;5071428;28;20098;-71
2024/02/12 06:25:18;;;;;;;25.77;16.58;;;8.20;99.90;;;;;;5077594;28;20028;-70
2024/02/12 06:27:46;;;;;;;28.47;18.40;;;8.20;99.90;;;;;;5069816;28;20033;-70
2024/02/12 06:30:14;;;;;;;18.48;13.43;;;8.30;99.90;;;;;;5070774;28;20353;-70
2024/02/12 06:32:42;;;;;;;17.55;12.63;;;8.30;99.90;;;;;;5070027;28;20045;-70
2024/02/12 06:35:09;;;;;;;16.40;12.48;;;8.30;99.90;;;;;;5038543;28;20047;-68
2024/02/12 06:37:47;;;;;;;19.60;12.98;;;8.40;99.90;;;;;;5069409;28;20475;-72
2024/02/12 06:40:15;;;;;;;21.05;12.98;;;8.40;99.90;;;;;;5070303;28;20111;-71
2024/02/12 06:42:42;;;;;;;18.85;14.30;;;8.40;99.90;;;;;;5063099;28;20036;-69
2024/02/12 06:45:09;;;;;;;31.50;20.67;;;8.40;99.90;;;;;;5070546;28;20024;-71
2024/02/12 06:47:37;;;;;;;22.67;15.60;;;8.60;99.90;;;;;;5066017;28;20048;-71
2024/02/12 06:50:05;;;;;;;36.33;23.00;;;8.50;99.90;;;;;;5070392;28;20445;-70
2024/02/12 06:52:51;;;;;;;31.75;20.75;;;8.70;99.90;;;;;;5064570;28;20391;-69
2024/02/12 06:55:19;;;;;;;24.10;16.85;;;9.10;99.90;;;;;;5066639;28;20039;-69
2024/02/12 06:57:46;;;;;;;20.10;14.00;;;9.20;99.90;;;;;;5063990;28;20052;-70
2024/02/12 07:00:16;;;;;;;20.17;15.93;;;9.30;99.90;;;;;;5064145;28;20025;-69
2024/02/12 07:02:44;;;;;;;25.15;14.45;;;9.20;99.90;;;;;;5060302;28;20060;-69
2024/02/12 07:05:17;;;;;;;20.35;13.98;;;9.10;99.90;;;;;;5062480;28;20086;-69
2024/02/12 07:07:46;;;;;;;23.52;14.98;;;8.90;99.90;;;;;;5061547;28;20059;-70
2024/02/12 07:10:13;;;;;;;31.33;18.77;;;9.10;99.90;;;;;;5073779;28;20083;-73
2024/02/12 07:12:41;;;;;;;32.50;21.92;;;9.40;99.90;;;;;;5050354;28;20426;-69
2024/02/12 07:15:09;;;;;;;36.42;24.08;;;9.40;99.90;;;;;;5049875;28;20032;-70
2024/02/12 07:17:36;;;;;;;37.75;23.38;;;9.40;99.90;;;;;;5048723;28;20036;-70
2024/02/12 07:20:08;;;;;;;34.85;23.75;;;9.50;99.90;;;;;;5062709;28;20063;-69
2024/02/12 07:22:37;;;;;;;40.90;24.20;;;9.50;99.90;;;;;;5064819;28;20422;-70
2024/02/12 07:25:05;;;;;;;34.17;20.27;;;9.50;99.90;;;;;;5063679;28;20038;-69
2024/02/12 07:27:35;;;;;;;34.20;20.95;;;9.50;99.90;;;;;;5046931;28;20131;-69
2024/02/12 07:30:03;;;;;;;29.08;19.98;;;9.60;99.90;;;;;;5055887;28;20033;-69
2024/02/12 07:32:32;;;;;;;25.90;18.10;;;9.50;99.90;;;;;;5051806;28;20032;-69
2024/02/12 07:35:00;;;;;;;25.05;18.00;;;9.60;99.90;;;;;;5036310;28;20461;-69
2024/02/12 07:37:27;;;;;;;23.33;16.65;;;9.70;99.90;;;;;;5040830;28;20365;-71
2024/02/12 07:39:56;;;;;;;25.23;17.35;;;9.80;99.90;;;;;;5063707;28;20044;-69
2024/02/12 07:42:24;;;;;;;33.63;17.70;;;10.00;99.90;;;;;;5040405;28;20052;-69
2024/02/12 07:44:52;;;;;;;27.95;16.30;;;10.10;99.90;;;;;;5058405;28;20511;-71
2024/02/12 07:47:20;;;;;;;29.13;16.73;;;10.20;99.90;;;;;;5059871;28;20040;-69
2024/02/12 07:49:51;;;;;;;28.50;15.45;;;10.30;99.90;;;;;;5041066;28;20036;-70
2024/02/12 07:52:18;;;;;;;29.20;16.13;;;10.30;99.90;;;;;;5050273;28;20411;-70
2024/02/12 07:54:46;;;;;;;22.08;13.93;;;10.30;99.90;;;;;;5049733;28;20033;-70
2024/02/12 07:57:13;;;;;;;22.20;14.57;;;10.50;99.90;;;;;;5062284;28;20276;-71
2024/02/12 07:59:40;;;;;;;28.83;15.57;;;10.50;99.90;;;;;;5068850;28;20039;-70
2024/02/12 08:02:08;;;;;;;23.40;15.48;;;10.60;99.90;;;;;;5068571;28;20495;-70
2024/02/12 08:04:36;;;;;;;26.73;16.20;;;10.40;99.90;;;;;;5058066;28;20029;-70
2024/02/12 08:07:04;;;;;;;22.63;15.13;;;10.30;99.90;;;;;;5039203;28;20040;-70
2024/02/12 08:09:35;;;;;;;26.45;14.85;;;10.40;99.90;;;;;;5046852;28;20426;-70
2024/02/12 08:12:05;;;;;;;23.27;15.25;;;10.30;99.90;;;;;;5065104;28;20375;-70
2024/02/12 08:14:36;;;;;;;25.05;15.18;;;10.40;99.90;;;;;;5064048;28;20075;-69
2024/02/12 08:17:06;;;;;;;23.58;14.30;;;10.60;99.90;;;;;;5052234;28;20041;-71
2024/02/12 08:19:34;;;;;;;;;;;10.70;99.90;;;;;;5067748;28;20033;-71
2024/02/12 08:22:01;;;;;;;24.90;14.40;;;10.80;99.90;;;;;;5052944;28;19939;-72
2024/02/12 08:24:45;;;;;;;22.00;13.80;;;10.70;99.90;;;;;;5065510;28;20047;-70
2024/02/12 08:27:13;;;;;;;25.45;15.13;;;10.30;99.90;;;;;;5071983;28;20391;-70
2024/02/12 08:29:40;;;;;;;26.38;14.52;;;10.10;99.90;;;;;;5059291;28;20037;-70
2024/02/12 08:32:07;;;;;;;22.60;13.23;;;10.20;99.90;;;;;;5059780;28;20051;-70
2024/02/12 08:34:40;;;;;;;21.60;13.73;;;10.30;99.90;;;;;;5060487;28;20031;-70
2024/02/12 08:37:10;;;;;;;20.95;13.63;;;10.30;99.90;;;;;;5066734;28;20072;-71
2024/02/12 08:39:43;;;;;;;21.95;13.55;;;10.40;99.90;;;;;;5055401;28;20033;-69
2024/02/12 08:42:10;;;;;;;20.40;12.15;;;10.40;99.90;;;;;;5040856;28;20156;-70
2024/02/12 08:44:38;;;;;;;18.55;12.65;;;10.70;99.90;;;;;;5065566;28;20123;-70
2024/02/12 08:47:05;;;;;;;21.30;12.48;;;10.50;99.90;;;;;;5059327;28;20037;-70
2024/02/12 08:49:32;;;;;;;20.65;11.98;;;10.20;99.90;;;;;;5084196;28;20414;-69
2024/02/12 08:52:00;;;;;;;17.88;12.55;;;10.40;99.90;;;;;;5063304;28;20039;-68
2024/02/12 08:54:30;;;;;;;21.02;13.20;;;10.90;99.90;;;;;;5074077;28;20043;-70
2024/02/12 08:57:01;;;;;;;21.10;11.85;;;11.40;99.90;;;;;;5054572;28;20372;-69
2024/02/12 08:59:31;;;;;;;18.83;11.60;;;11.80;99.90;;;;;;5051560;28;20048;-73
2024/02/12 09:01:58;;;;;;;20.00;11.25;;;12.00;99.90;;;;;;5067045;28;20506;-71
2024/02/12 09:04:26;;;;;;;15.90;9.75;;;12.10;99.90;;;;;;5067109;28;20379;-70
2024/02/12 09:06:53;;;;;;;22.88;14.38;;;12.10;99.90;;;;;;5069897;28;20067;-70
2024/02/12 09:09:21;;;;;;;18.33;11.93;;;12.30;99.90;;;;;;5070917;28;20040;-68
2024/02/12 09:11:48;;;;;;;16.85;10.80;;;12.20;99.90;;;;;;5050357;28;20051;-70
2024/02/12 09:14:17;;;;;;;15.65;10.00;;;12.50;99.90;;;;;;5069534;28;20028;-70
2024/02/12 09:16:44;;;;;;;16.40;9.77;;;12.70;99.90;;;;;;5061787;28;20503;-69
2024/02/12 09:19:11;;;;;;;18.85;10.13;;;12.60;99.90;;;;;;5063969;28;20036;-70
2024/02/12 09:21:38;;;;;;;13.85;9.80;;;12.90;99.90;;;;;;5057728;28;20048;-70
2024/02/12 09:24:07;;;;;;;16.70;10.07;;;13.20;99.90;;;;;;5059884;28;20029;-72
2024/02/12 09:26:36;;;;;;;18.17;10.18;;;13.50;99.90;;;;;;5054632;28;20047;-71
2024/02/12 09:29:03;;;;;;;21.15;9.82;;;13.50;99.90;;;;;;5061778;28;20423;-72
2024/02/12 09:31:33;;;;;;;17.75;10.02;;;13.60;99.90;;;;;;5073067;28;20070;-74
2024/02/12 09:34:03;;;;;;;15.18;10.43;;;13.80;99.90;;;;;;5067733;28;20032;-75
2024/02/12 09:36:31;;;;;;;14.27;10.38;;;13.80;99.90;;;;;;5068948;28;20047;-73
2024/02/12 09:38:59;;;;;;;15.93;10.60;;;14.00;99.90;;;;;;5050905;28;20044;-73
2024/02/12 09:41:28;;;;;;;18.65;9.55;;;14.20;99.90;;;;;;5071354;28;20048;-73
2024/02/12 09:43:55;;;;;;;14.98;9.35;;;14.50;99.90;;;;;;5065584;28;20377;-71
2024/02/12 09:46:23;;;;;;;12.82;9.02;;;14.70;99.90;;;;;;5066821;28;20032;-72
2024/02/12 09:48:52;;;;;;;12.88;8.65;;;14.50;99.90;;;;;;5064944;28;20041;-72
2024/02/12 09:51:23;;;;;;;15.40;8.35;;;14.50;99.90;;;;;;5063957;28;20112;-72
2024/02/12 09:53:55;;;;;;;13.75;8.75;;;14.80;99.90;;;;;;5072382;28;20099;-72
2024/02/12 09:56:24;;;;;;;14.43;8.52;;;14.70;99.90;;;;;;5072444;28;20123;-71
2024/02/12 09:58:51;;;;;;;11.93;8.20;;;14.80;99.90;;;;;;5071102;28;20357;-72
2024/02/12 10:01:18;;;;;;;13.70;8.50;;;14.10;99.90;;;;;;5072856;28;20329;-73
2024/02/12 10:04:06;;;;;;;9.80;7.30;;;14.70;99.90;;;;;;5057154;28;20115;-71
2024/02/12 10:06:54;;;;;;;8.95;6.65;;;14.80;99.90;;;;;;5085127;28;20131;-71
2024/02/12 10:09:41;;;;;;;10.73;6.18;;;14.70;99.90;;;;;;5060406;28;20464;-73
2024/02/12 10:12:30;;;;;;;10.90;7.47;;;15.30;99.90;;;;;;5037371;28;20072;-72
2024/02/12 10:15:20;;;;;;;10.65;6.65;;;15.70;99.90;;;;;;5065837;28;20037;-71
2024/02/12 10:18:12;;;;;;;12.68;7.80;;;16.00;99.90;;;;;;5069410;28;20045;-72
2024/02/12 10:21:01;;;;;;;11.77;7.28;;;16.30;99.20;;;;;;5049925;28;20036;-70
2024/02/12 10:23:49;;;;;;;14.77;7.07;;;16.00;98.00;;;;;;5065284;28;20064;-71
2024/02/12 10:26:37;;;;;;;13.55;6.70;;;15.40;98.10;;;;;;5064217;28;20037;-73
2024/02/12 10:29:24;;;;;;;10.68;6.82;;;15.30;98.70;;;;;;5064693;28;20044;-73
2024/02/12 10:32:11;;;;;;;11.60;6.50;;;15.50;98.50;;;;;;5050787;28;20028;-72
2024/02/12 10:35:02;;;;;;;12.65;7.05;;;15.80;99.20;;;;;;5065911;28;20119;-71
2024/02/12 10:38:07;;;;;;;11.60;7.25;;;16.30;99.50;;;;;;5066493;28;20040;-71
2024/02/12 10:41:18;;;;;;;9.80;6.25;;;16.80;98.30;;;;;;5053130;28;20076;-70
2024/02/12 10:44:06;;;;;;;19.50;12.15;;;16.90;97.90;;;;;;5066038;28;20094;-71
2024/02/12 10:46:54;;;;;;;17.58;8.63;;;16.60;98.00;;;;;;5056518;28;20040;-70
2024/02/12 10:49:41;;;;;;;10.55;6.43;;;16.30;98.50;;;;;;5056463;28;20224;-70
2024/02/12 10:52:30;;;;;;;9.68;6.32;;;16.00;97.80;;;;;;5041231;28;20033;-70
2024/02/12 10:55:18;;;;;;;13.98;6.80;;;15.20;98.30;;;;;;5061353;28;20048;-72
2024/02/12 10:57:46;;;;;;;12.80;6.90;;;15.30;99.90;;;;;;5068712;28;20156;-74
2024/02/12 11:00:23;;;;;;;12.07;6.72;;;15.60;99.10;;;;;;5070661;28;20040;-71
2024/02/12 11:03:00;;;;;;;11.65;6.20;;;15.80;97.70;;;;;;5070510;28;20040;-72
2024/02/12 11:05:28;;;;;;;16.23;7.13;;;15.80;98.30;;;;;;5070079;28;20039;-75
2024/02/12 11:08:18;;;;;;;13.82;6.50;;;15.60;98.40;;;;;;5070382;28;20113;-71
2024/02/12 11:10:49;;;;;;;10.90;6.88;;;15.90;97.60;;;;;;5063260;28;20052;-69
2024/02/12 11:13:19;;;;;;;10.27;6.32;;;15.70;97.50;;;;;;5068642;28;20032;-71
2024/02/12 11:15:51;;;;;;;13.43;7.05;;;15.50;97.60;;;;;;5070221;28;20036;-70
2024/02/12 11:18:22;;;;;;;10.60;5.85;;;15.40;98.20;;;;;;5068946;28;20037;-72
2024/02/12 11:20:51;;;;;;;13.20;6.45;;;15.70;98.20;;;;;;5069194;28;20029;-69
2024/02/12 11:23:22;;;;;;;9.18;6.05;;;15.90;97.80;;;;;;5068627;28;20106;-70
2024/02/12 11:25:50;;;;;;;11.23;6.35;;;16.10;97.40;;;;;;5069937;28;20043;-71
2024/02/12 11:28:25;;;;;;;13.98;6.32;;;16.20;97.20;;;;;;5056894;28;20116;-71
2024/02/12 11:30:53;;;;;;;13.52;6.97;;;16.10;97.30;;;;;;5068758;28;20040;-73
2024/02/12 11:33:24;;;;;;;9.52;6.00;;;16.00;97.10;;;;;;5070480;28;20044;-72
2024/02/12 11:36:08;;;;;;;11.80;6.55;;;16.00;97.70;;;;;;5065916;28;20041;-80
2024/02/12 11:38:58;;;;;;;11.32;6.30;;;16.10;97.90;;;;;;5070056;28;20120;-72
2024/02/12 11:41:25;;;;;;;13.85;7.90;;;16.80;97.10;;;;;;5064609;28;20344;-73
2024/02/12 11:43:53;;;;;;;11.48;6.45;;;16.80;96.00;;;;;;5053169;28;20391;-72
2024/02/12 11:46:20;;;;;;;14.13;7.60;;;17.10;96.30;;;;;;5072301;28;20499;-70
2024/02/12 11:48:49;;;;;;;10.85;7.63;;;17.00;95.80;;;;;;5071055;28;20467;-73
2024/02/12 11:51:21;;;;;;;11.13;7.75;;;16.80;96.30;;;;;;5060107;28;20037;-73
2024/02/12 11:53:51;;;;;;;12.38;7.00;;;16.80;95.90;;;;;;5068962;28;20514;-72
2024/02/12 11:56:21;;;;;;;15.35;7.47;;;16.80;95.60;;;;;;5073904;28;20040;-70
2024/02/12 11:58:56;;;;;;;10.85;6.93;;;17.40;95.00;;;;;;5072162;28;20040;-71
2024/02/12 12:01:28;;;;;;;12.90;7.35;;;17.20;95.00;;;;;;5055368;28;20041;-71
2024/02/12 12:03:57;;;;;;;13.63;6.95;;;16.80;95.10;;;;;;5069789;28;20045;-72
2024/02/12 12:06:31;;;;;;;17.65;7.85;;;16.50;95.60;;;;;;5045087;28;20099;-73
2024/02/12 12:08:59;;;;;;;17.45;7.95;;;16.00;96.30;;;;;;5057063;28;20048;-71
2024/02/12 12:11:26;;;;;;;17.20;8.70;;;16.50;95.80;;;;;;5043196;28;20048;-72
2024/02/12 12:13:58;;;;;;;11.18;6.07;;;16.70;95.40;;;;;;5054769;28;20124;-69
2024/02/12 12:16:27;;;;;;;13.02;5.78;;;16.80;94.80;;;;;;5067282;28;20116;-71
2024/02/12 12:18:54;;;;;;;12.63;5.72;;;17.30;94.00;;;;;;5063937;28;20072;-71
2024/02/12 12:21:22;;;;;;;11.85;5.45;;;17.60;93.50;;;;;;5056718;28;20442;-71
2024/02/12 12:23:52;;;;;;;11.15;6.15;;;17.60;93.30;;;;;;5073079;28;20390;-70
2024/02/12 12:26:20;;;;;;;25.10;16.45;;;17.80;93.10;;;;;;5074204;28;20086;-71
2024/02/12 12:28:47;;;;;;;13.20;7.22;;;18.10;92.40;;;;;;5074419;28;20464;-72
2024/02/12 12:31:14;;;;;;;13.18;6.07;;;18.40;92.50;;;;;;5074273;28;20058;-72
2024/02/12 12:33:44;;;;;;;15.20;6.18;;;18.90;92.20;;;;;;5062487;28;20480;-73
2024/02/12 12:36:12;;;;;;;8.65;5.18;;;18.80;92.00;;;;;;5067538;28;20033;-73
2024/02/12 12:38:42;;;;;;;7.63;4.78;;;18.20;91.20;;;;;;5054298;28;20045;-73
2024/02/12 12:41:10;;;;;;;9.05;4.80;;;17.90;91.60;;;;;;5061267;28;20432;-71
2024/02/12 12:43:37;;;;;;;12.07;5.32;;;18.50;90.90;;;;;;5073499;28;20040;-70
2024/02/12 12:46:07;;;;;;;10.98;4.90;;;20.50;89.90;;;;;;5077831;28;20111;-72
2024/02/12 12:48:50;;;;;;;12.32;4.90;;;23.10;82.90;;;;;;5071703;28;20414;-70
2024/02/12 12:51:18;;;;;;;9.05;4.00;;;26.00;73.30;;;;;;5081008;28;20063;-71
2024/02/12 12:53:45;;;;;;;9.85;4.40;;;28.40;66.70;;;;;;5069742;28;20029;-71
2024/02/12 12:56:13;;;;;;;13.80;6.90;;;28.40;61.90;;;;;;5065395;28;20060;-70
2024/02/12 12:58:40;;;;;;;11.98;5.43;;;28.80;58.80;;;;;;5073298;28;20067;-71
2024/02/12 13:01:08;;;;;;;10.68;4.57;;;28.70;59.40;;;;;;5064696;28;20033;-77
2024/02/12 13:03:44;;;;;;;9.63;5.35;;;29.90;56.70;;;;;;5058488;28;20028;-72
2024/02/12 13:06:12;;;;;;;13.15;4.53;;;30.50;55.30;;;;;;5083367;28;20044;-71